Time;durP1;ratioP1;P1;durP2;ratioP2;P2;SDS_P1;SDS_P2;PMS_P1;PMS_P2;Temp;Humidity;BMP_temperature;BMP_pressure;BME280_temperature;BME280_humidity;BME280_pressure;Samples;Min_cycle;Max_cycle;Signal;HPM_P1;HPM_P2
2021/04/16 00:00:46;;;;;;;3.67;3.03;;;3.80;93.60;;;;;;5055225;28;20195;-53
2021/04/16 00:03:12;;;;;;;3.27;2.97;;;4.00;93.90;;;;;;5055269;28;20681;-46
2021/04/16 00:05:40;;;;;;;4.37;3.13;;;3.70;94.20;;;;;;5055704;28;20425;-47
2021/04/16 00:08:16;;;;;;;3.63;3.20;;;3.70;94.10;;;;;;5058373;28;20198;-57
2021/04/16 00:10:48;;;;;;;2.97;2.67;;;3.70;93.90;;;;;;5069674;28;20201;-57
2021/04/16 00:13:16;;;;;;;5.23;3.13;;;3.70;93.80;;;;;;5056852;28;20769;-50
2021/04/16 00:15:42;;;;;;;3.30;3.00;;;3.70;94.00;;;;;;5059219;28;20432;-46
2021/04/16 00:18:11;;;;;;;3.70;3.30;;;3.70;94.40;;;;;;5075422;28;20170;-51
2021/04/16 00:20:38;;;;;;;4.20;3.47;;;3.60;94.60;;;;;;5074261;28;20174;-46
2021/04/16 00:23:04;;;;;;;4.43;3.80;;;3.60;94.70;;;;;;5073745;28;20897;-47
2021/04/16 00:25:30;;;;;;;4.00;3.40;;;3.50;94.90;;;;;;5074745;28;20480;-54
2021/04/16 00:27:57;;;;;;;6.07;3.97;;;3.50;94.90;;;;;;5069452;28;20171;-45
2021/04/16 00:30:33;;;;;;;4.67;3.93;;;3.50;94.90;;;;;;5055215;28;20409;-48
2021/04/16 00:32:59;;;;;;;4.30;3.90;;;3.50;95.30;;;;;;5054187;28;20417;-49
2021/04/16 00:35:24;;;;;;;5.03;4.50;;;3.30;99.90;;;;;;5053464;28;20445;-52
2021/04/16 00:37:51;;;;;;;5.17;4.67;;;3.40;95.60;;;;;;5054819;28;20167;-50
2021/04/16 00:40:24;;;;;;;6.00;4.50;;;3.30;95.60;;;;;;5053686;28;20174;-51
2021/04/16 00:42:56;;;;;;;5.47;4.50;;;3.30;95.60;;;;;;5054492;28;20444;-50
2021/04/16 00:45:23;;;;;;;6.80;4.87;;;3.10;99.90;;;;;;5054823;28;20418;-47
2021/04/16 00:47:50;;;;;;;5.77;4.53;;;3.20;96.30;;;;;;5054395;28;20386;-50
2021/04/16 00:50:20;;;;;;;5.83;4.80;;;3.00;97.10;;;;;;5058154;28;20404;-51
2021/04/16 00:52:46;;;;;;;5.20;3.73;;;3.00;97.00;;;;;;5072169;28;20421;-48
2021/04/16 00:55:13;;;;;;;4.90;4.03;;;3.00;99.90;;;;;;5054312;28;20754;-46
2021/04/16 00:57:39;;;;;;;4.27;3.87;;;3.00;96.60;;;;;;5053563;28;20420;-49
2021/04/16 01:00:07;;;;;;;4.57;3.80;;;3.00;96.70;;;;;;5073732;28;20421;-48
2021/04/16 01:02:33;;;;;;;6.00;4.40;;;3.00;97.10;;;;;;5074099;28;20202;-46
2021/04/16 01:04:58;;;;;;;5.40;4.07;;;3.00;97.10;;;;;;5072611;28;20520;-57
2021/04/16 01:07:24;;;;;;;4.60;4.10;;;3.00;97.00;;;;;;5073389;28;20209;-46
2021/04/16 01:09:50;;;;;;;4.57;4.10;;;3.00;97.20;;;;;;5060981;28;20175;-53
2021/04/16 01:12:17;;;;;;;5.70;4.63;;;2.90;97.90;;;;;;5054018;28;20178;-48
2021/04/16 01:14:48;;;;;;;4.70;4.17;;;2.90;97.80;;;;;;5054134;28;20504;-49
2021/04/16 01:17:15;;;;;;;5.50;4.00;;;2.90;97.90;;;;;;5056306;28;20535;-47
2021/04/16 01:19:44;;;;;;;4.40;3.83;;;2.90;97.40;;;;;;5074208;28;20416;-51
2021/04/16 01:22:17;;;;;;;4.97;4.27;;;2.90;97.80;;;;;;5071257;28;20484;-45
2021/04/16 01:24:43;;;;;;;4.77;3.90;;;;;;;;;;5053924;28;20417;-52
2021/04/16 01:27:12;;;;;;;4.40;4.00;;;2.90;98.10;;;;;;5053813;28;20440;-54
2021/04/16 01:29:44;;;;;;;4.80;3.87;;;2.90;97.90;;;;;;5073255;28;20822;-47
2021/04/16 01:32:12;;;;;;;4.77;3.73;;;2.90;97.90;;;;;;5073819;28;20416;-50
2021/04/16 01:34:38;;;;;;;4.73;3.83;;;2.90;97.80;;;;;;5073927;28;20416;-45
2021/04/16 01:37:04;;;;;;;4.53;4.00;;;2.90;98.00;;;;;;5074113;28;20452;-49
2021/04/16 01:39:32;;;;;;;4.50;3.73;;;2.90;98.00;;;;;;5054977;28;20487;-50
2021/04/16 01:41:59;;;;;;;5.47;3.83;;;2.90;98.10;;;;;;5052425;28;20222;-52
2021/04/16 01:44:28;;;;;;;5.30;4.17;;;2.90;97.80;;;;;;5066696;28;20908;-51
2021/04/16 01:46:59;;;;;;;5.33;4.40;;;2.90;97.80;;;;;;5062455;28;20437;-52
2021/04/16 01:49:31;;;;;;;4.97;3.93;;;2.90;98.30;;;;;;5053145;28;20429;-47
2021/04/16 01:51:57;;;;;;;4.97;4.13;;;2.90;98.20;;;;;;5054385;28;20497;-51
2021/04/16 01:54:25;;;;;;;4.83;3.93;;;2.90;98.00;;;;;;5072424;28;20436;-51
2021/04/16 01:57:00;;;;;;;4.30;3.90;;;2.90;98.00;;;;;;5056382;28;20446;-46
2021/04/16 01:59:28;;;;;;;4.10;3.70;;;2.90;97.60;;;;;;5052751;28;20889;-49
2021/04/16 02:01:54;;;;;;;4.00;3.60;;;2.90;97.80;;;;;;5069853;28;20505;-57
2021/04/16 02:04:21;;;;;;;4.43;4.00;;;2.90;98.40;;;;;;5074015;28;20452;-50
2021/04/16 02:06:47;;;;;;;4.10;3.70;;;2.80;99.20;;;;;;5054409;28;21374;-48
2021/04/16 02:09:26;;;;;;;4.50;4.10;;;2.70;99.50;;;;;;5053636;28;20409;-52
2021/04/16 02:11:52;;;;;;;6.30;4.33;;;2.70;99.30;;;;;;5070743;28;20448;-55
2021/04/16 02:14:21;;;;;;;5.23;4.73;;;2.60;99.90;;;;;;5060823;28;20436;-56
2021/04/16 02:16:50;;;;;;;5.10;4.40;;;2.60;99.90;;;;;;5052780;28;20430;-52
2021/04/16 02:19:15;;;;;;;6.37;4.60;;;2.50;99.90;;;;;;5063954;28;20432;-47
2021/04/16 02:21:42;;;;;;;6.97;4.43;;;2.50;99.90;;;;;;5073539;28;20502;-46
2021/04/16 02:24:09;;;;;;;5.13;4.30;;;2.50;99.90;;;;;;5063576;28;20559;-45
2021/04/16 02:26:35;;;;;;;5.27;4.37;;;2.50;99.90;;;;;;5052289;28;20824;-52
2021/04/16 02:29:03;;;;;;;5.27;4.30;;;2.40;99.90;;;;;;5061374;28;20413;-57
2021/04/16 02:31:28;;;;;;;5.00;4.30;;;2.40;99.90;;;;;;5072108;28;20408;-51
2021/04/16 02:33:54;;;;;;;5.53;4.77;;;2.40;99.90;;;;;;5066897;28;20739;-56
2021/04/16 02:36:24;;;;;;;5.20;4.70;;;;;;;;;;5053196;28;20218;-50
2021/04/16 02:38:50;;;;;;;5.80;5.03;;;2.40;99.90;;;;;;5058577;28;20623;-53
2021/04/16 02:41:15;;;;;;;6.10;5.03;;;2.40;99.90;;;;;;5070784;28;20468;-51
2021/04/16 02:43:40;;;;;;;7.67;4.70;;;2.40;99.90;;;;;;5069654;28;20171;-51
2021/04/16 02:46:06;;;;;;;6.00;5.10;;;2.30;99.90;;;;;;5056620;28;20184;-46
2021/04/16 02:48:32;;;;;;;5.70;5.10;;;2.30;99.90;;;;;;5057333;28;20172;-49
2021/04/16 02:50:57;;;;;;;6.33;5.60;;;2.20;99.90;;;;;;5076613;28;20175;-58
2021/04/16 02:53:23;;;;;;;6.93;5.60;;;2.20;99.90;;;;;;5076508;28;20204;-55
2021/04/16 02:55:48;;;;;;;6.20;5.60;;;2.10;99.90;;;;;;5076867;28;20195;-47
2021/04/16 02:58:14;;;;;;;7.10;5.57;;;2.10;99.90;;;;;;5076996;28;20205;-45
2021/04/16 03:00:39;;;;;;;6.10;5.50;;;1.90;99.90;;;;;;5057682;28;20734;-45
2021/04/16 03:03:05;;;;;;;6.80;5.57;;;1.80;99.90;;;;;;5056181;28;20171;-54
2021/04/16 03:05:30;;;;;;;7.03;5.70;;;1.80;99.90;;;;;;5071678;28;20264;-51
2021/04/16 03:07:56;;;;;;;7.17;5.17;;;1.70;99.90;;;;;;5076495;28;20174;-49
2021/04/16 03:10:26;;;;;;;5.37;4.77;;;1.60;99.90;;;;;;5061659;28;20179;-45
2021/04/16 03:12:52;;;;;;;7.33;5.17;;;1.60;99.90;;;;;;5055086;28;20171;-45
2021/04/16 03:15:18;;;;;;;5.80;5.00;;;1.50;99.90;;;;;;5069605;28;20425;-47
2021/04/16 03:17:46;;;;;;;5.80;4.77;;;1.70;99.90;;;;;;5076309;28;20175;-46
2021/04/16 03:20:13;;;;;;;7.10;5.37;;;1.80;99.90;;;;;;5063878;28;20185;-50
2021/04/16 03:22:39;;;;;;;5.87;5.27;;;1.80;99.90;;;;;;5055022;28;20514;-47
2021/04/16 03:25:06;;;;;;;7.20;6.03;;;1.80;99.90;;;;;;5066363;28;20504;-53
2021/04/16 03:27:32;;;;;;;7.53;5.70;;;1.80;99.90;;;;;;5075198;28;20281;-49
2021/04/16 03:29:57;;;;;;;7.93;6.10;;;1.80;99.90;;;;;;5066541;28;20589;-50
2021/04/16 03:32:23;;;;;;;7.70;6.10;;;1.90;99.90;;;;;;5055621;28;20193;-54
2021/04/16 03:34:49;;;;;;;7.63;5.77;;;2.00;99.90;;;;;;5062908;28;20181;-51
2021/04/16 03:37:15;;;;;;;7.43;5.70;;;2.00;99.90;;;;;;5073327;28;20264;-58
2021/04/16 03:39:40;;;;;;;6.80;5.77;;;2.00;99.90;;;;;;5058030;28;20179;-46
2021/04/16 03:42:06;;;;;;;7.27;6.33;;;2.00;99.90;;;;;;5064218;28;20480;-49
2021/04/16 03:44:32;;;;;;;6.97;6.23;;;2.00;99.90;;;;;;5057276;28;20203;-47
2021/04/16 03:46:58;;;;;;;8.07;6.77;;;2.00;99.90;;;;;;5062155;28;20638;-46
2021/04/16 03:49:23;;;;;;;6.93;5.80;;;1.90;99.90;;;;;;5062872;28;20440;-45
2021/04/16 03:51:55;;;;;;;6.83;5.70;;;1.90;99.90;;;;;;5062996;28;20210;-47
2021/04/16 03:54:22;;;;;;;6.70;5.70;;;1.90;99.90;;;;;;5058945;28;20186;-50
2021/04/16 03:56:48;;;;;;;10.10;7.10;;;1.90;99.90;;;;;;5059163;28;20496;-47
2021/04/16 03:59:14;;;;;;;9.00;7.50;;;1.90;99.90;;;;;;5058713;28;20421;-49
2021/04/16 04:01:40;;;;;;;9.27;7.80;;;1.90;99.90;;;;;;5066346;28;21019;-48
2021/04/16 04:04:06;;;;;;;12.30;7.70;;;1.90;99.90;;;;;;5063886;28;20414;-47
2021/04/16 04:06:31;;;;;;;8.57;7.10;;;1.80;99.90;;;;;;5061739;28;20625;-57
2021/04/16 04:08:57;;;;;;;10.87;7.27;;;;;;;;;;5070588;28;20190;-45
2021/04/16 04:11:23;;;;;;;7.50;6.40;;;1.30;99.90;;;;;;5055675;28;20187;-51
2021/04/16 04:13:48;;;;;;;8.20;5.77;;;1.10;99.90;;;;;;5064273;28;20430;-47
2021/04/16 04:16:14;;;;;;;6.87;5.70;;;1.00;99.90;;;;;;5067437;28;20289;-59
2021/04/16 04:18:40;;;;;;;9.73;6.17;;;1.00;99.90;;;;;;5062875;28;20187;-47
2021/04/16 04:21:05;;;;;;;9.37;6.50;;;1.00;99.90;;;;;;5053815;28;20251;-50
2021/04/16 04:23:31;;;;;;;5.90;5.30;;;1.10;99.90;;;;;;5055186;28;20198;-45
2021/04/16 04:25:57;;;;;;;7.83;5.73;;;1.10;99.90;;;;;;5055065;28;20202;-55
2021/04/16 04:28:22;;;;;;;7.07;5.77;;;1.20;99.90;;;;;;5053872;28;20274;-45
2021/04/16 04:30:48;;;;;;;7.27;6.17;;;1.20;99.90;;;;;;5054984;28;20171;-53
2021/04/16 04:33:14;;;;;;;6.67;5.47;;;;;;;;;;5054646;28;20177;-52
2021/04/16 04:35:40;;;;;;;6.43;5.63;;;1.20;99.90;;;;;;5070090;28;20234;-56
2021/04/16 04:38:06;;;;;;;7.43;6.33;;;1.50;99.90;;;;;;5074659;28;20413;-45
2021/04/16 04:40:33;;;;;;;7.23;6.40;;;1.40;99.90;;;;;;5059905;28;20570;-57
2021/04/16 04:42:59;;;;;;;6.97;5.73;;;1.50;99.90;;;;;;5053217;28;20425;-46
2021/04/16 04:45:25;;;;;;;6.60;5.90;;;1.50;99.90;;;;;;5061343;28;20435;-56
2021/04/16 04:47:51;;;;;;;7.93;6.80;;;1.40;99.90;;;;;;5055377;28;20586;-51
2021/04/16 04:50:17;;;;;;;8.40;7.10;;;1.50;99.90;;;;;;5054827;28;20167;-45
2021/04/16 04:52:43;;;;;;;9.27;6.37;;;1.50;99.90;;;;;;5070097;28;20421;-49
2021/04/16 04:55:12;;;;;;;9.57;7.30;;;1.60;99.90;;;;;;5061785;28;20924;-56
2021/04/16 04:57:38;;;;;;;9.60;7.97;;;1.70;99.90;;;;;;5058040;28;20650;-50
2021/04/16 05:00:09;;;;;;;9.07;7.73;;;1.80;99.90;;;;;;5072014;28;20444;-45
2021/04/16 05:02:35;;;;;;;9.73;8.30;;;1.80;99.90;;;;;;5068888;28;20195;-49
2021/04/16 05:05:01;;;;;;;9.03;7.57;;;1.70;99.90;;;;;;5056233;28;20438;-47
2021/04/16 05:07:26;;;;;;;10.80;8.23;;;1.70;99.90;;;;;;5054059;28;20199;-45
2021/04/16 05:09:52;;;;;;;9.27;7.07;;;1.70;99.90;;;;;;5063154;28;20170;-56
2021/04/16 05:12:19;;;;;;;9.00;7.90;;;1.70;99.90;;;;;;5072898;28;20182;-50
2021/04/16 05:14:45;;;;;;;8.77;7.87;;;;;;;;;;5067557;28;20248;-48
2021/04/16 05:17:10;;;;;;;232.93;129.20;;;1.80;99.90;;;;;;5054572;28;20432;-46
2021/04/16 05:19:36;;;;;;;19.93;13.90;;;1.90;99.90;;;;;;5057360;28;20237;-46
2021/04/16 05:22:04;;;;;;;8.93;8.00;;;2.00;99.90;;;;;;5060408;28;20697;-58
2021/04/16 05:24:31;;;;;;;8.10;7.10;;;1.80;99.90;;;;;;5053299;28;20201;-53
2021/04/16 05:26:59;;;;;;;7.87;6.83;;;1.90;99.90;;;;;;5050993;28;20453;-48
2021/04/16 05:29:25;;;;;;;7.27;6.57;;;1.80;99.90;;;;;;5055728;28;20427;-51
2021/04/16 05:31:51;;;;;;;8.47;7.10;;;1.90;99.90;;;;;;5070712;28;20440;-47
2021/04/16 05:34:17;;;;;;;8.70;7.63;;;2.00;99.90;;;;;;5069147;28;20893;-51
2021/04/16 05:36:42;;;;;;;9.10;7.10;;;2.00;99.90;;;;;;5057382;28;20226;-58
2021/04/16 05:39:08;;;;;;;9.40;8.00;;;;;;;;;;5073431;28;20248;-48
2021/04/16 05:41:33;;;;;;;6.57;5.73;;;2.00;99.90;;;;;;5072570;28;20229;-50
2021/04/16 05:43:59;;;;;;;7.20;6.07;;;2.00;99.90;;;;;;5072478;28;20543;-53
2021/04/16 05:46:25;;;;;;;7.70;7.00;;;1.90;99.90;;;;;;5073382;28;20554;-50
2021/04/16 05:48:50;;;;;;;7.47;6.67;;;1.90;99.90;;;;;;5054960;28;20232;-55
2021/04/16 05:51:16;;;;;;;8.63;7.50;;;2.00;99.90;;;;;;5060773;28;20202;-48
2021/04/16 05:53:41;;;;;;;9.90;8.20;;;2.10;99.90;;;;;;5059469;28;20178;-57
2021/04/16 05:56:07;;;;;;;9.43;7.87;;;2.20;99.90;;;;;;5059384;28;20207;-54
2021/04/16 05:58:33;;;;;;;11.60;9.73;;;2.20;99.90;;;;;;5052188;28;20187;-46
2021/04/16 06:00:59;;;;;;;11.90;9.37;;;2.20;99.90;;;;;;5064205;28;20203;-48
2021/04/16 06:03:24;;;;;;;9.20;8.03;;;2.30;99.90;;;;;;5063824;28;20418;-50
2021/04/16 06:05:50;;;;;;;10.37;8.43;;;2.40;99.90;;;;;;5064561;28;20218;-50
2021/04/16 06:08:18;;;;;;;9.60;8.63;;;2.40;99.90;;;;;;5054092;28;20198;-52
2021/04/16 06:10:44;;;;;;;11.03;9.50;;;2.40;99.90;;;;;;5058013;28;20649;-53
2021/04/16 06:13:10;;;;;;;11.13;9.73;;;2.40;99.90;;;;;;5067859;28;20417;-57
2021/04/16 06:15:36;;;;;;;11.50;9.97;;;2.30;99.90;;;;;;5059496;28;20196;-60
2021/04/16 06:18:01;;;;;;;12.77;9.93;;;2.40;99.90;;;;;;5056194;28;20195;-51
2021/04/16 06:20:28;;;;;;;11.57;10.37;;;2.50;99.90;;;;;;5076216;28;20201;-53
2021/04/16 06:22:55;;;;;;;12.83;10.20;;;2.40;99.90;;;;;;5074964;28;20700;-56
2021/04/16 06:25:24;;;;;;;11.47;9.40;;;2.10;99.90;;;;;;5075204;28;20412;-51
2021/04/16 06:27:51;;;;;;;10.40;9.33;;;2.40;99.90;;;;;;5076147;28;20405;-47
2021/04/16 06:30:19;;;;;;;10.97;9.70;;;2.40;99.90;;;;;;5077279;28;20405;-50
2021/04/16 06:32:45;;;;;;;11.60;10.10;;;2.40;99.90;;;;;;5076909;28;20416;-57
2021/04/16 06:35:13;;;;;;;11.73;9.50;;;2.30;99.90;;;;;;5077240;28;20408;-58
2021/04/16 06:37:39;;;;;;;11.27;10.07;;;2.30;99.90;;;;;;5076915;28;20253;-48
2021/04/16 06:40:06;;;;;;;10.67;9.43;;;2.30;99.90;;;;;;5077352;28;20444;-46
2021/04/16 06:42:33;;;;;;;10.40;9.17;;;2.30;99.90;;;;;;5076779;28;20281;-57
2021/04/16 06:45:03;;;;;;;10.20;9.10;;;2.20;99.90;;;;;;5077300;28;20468;-47
2021/04/16 06:47:38;;;;;;;10.70;9.57;;;2.30;99.90;;;;;;5077132;28;20923;-47
2021/04/16 06:50:05;;;;;;;11.43;9.50;;;2.50;99.90;;;;;;5076946;28;20414;-51
2021/04/16 06:52:45;;;;;;;10.07;8.83;;;2.70;99.90;;;;;;5076682;28;20462;-47
2021/04/16 06:55:16;;;;;;;10.47;9.30;;;2.90;99.90;;;;;;5077015;28;20959;-50
2021/04/16 06:57:47;;;;;;;12.17;9.90;;;2.70;99.90;;;;;;5077186;28;20696;-51
2021/04/16 07:00:46;;;;;;;10.53;9.30;;;2.70;99.90;;;;;;5076874;28;20413;-50
2021/04/16 07:03:26;;;;;;;10.87;9.70;;;2.60;99.90;;;;;;5076619;28;20413;-53
2021/04/16 07:05:58;;;;;;;11.03;9.20;;;2.90;99.90;;;;;;5076723;28;20447;-53
2021/04/16 07:08:49;;;;;;;10.17;8.37;;;2.60;99.90;;;;;;5077083;28;20179;-58
2021/04/16 07:11:35;;;;;;;10.43;9.23;;;2.70;99.90;;;;;;5076008;28;20416;-53
2021/04/16 07:14:02;;;;;;;9.93;8.70;;;2.80;99.90;;;;;;5076463;28;20396;-50
2021/04/16 07:16:32;;;;;;;10.30;9.10;;;2.80;99.90;;;;;;5076339;28;20198;-50
2021/04/16 07:19:02;;;;;;;9.93;8.60;;;2.80;99.90;;;;;;5076833;28;20405;-49
2021/04/16 07:21:28;;;;;;;10.50;9.10;;;2.90;99.90;;;;;;5076042;28;20202;-48
2021/04/16 07:24:00;;;;;;;10.77;9.33;;;3.10;99.90;;;;;;5076173;28;20189;-50
2021/04/16 07:26:31;;;;;;;8.80;7.90;;;3.20;99.90;;;;;;5075926;28;20669;-53
2021/04/16 07:28:57;;;;;;;9.50;8.50;;;3.30;99.90;;;;;;5076474;28;20401;-56
2021/04/16 07:31:29;;;;;;;10.17;8.13;;;3.40;99.90;;;;;;5075513;28;20181;-49
2021/04/16 07:33:56;;;;;;;8.93;8.00;;;3.50;99.90;;;;;;5075836;28;20179;-51
2021/04/16 07:36:40;;;;;;;10.67;8.33;;;3.70;99.90;;;;;;5075730;28;20697;-53
2021/04/16 07:39:12;;;;;;;8.53;7.63;;;3.90;99.90;;;;;;5076058;28;20178;-52
2021/04/16 07:42:09;;;;;;;9.67;7.80;;;4.10;99.90;;;;;;5074228;28;20206;-54
2021/04/16 07:44:39;;;;;;;9.07;7.93;;;4.50;99.90;;;;;;5061483;28;20569;-48
2021/04/16 07:47:20;;;;;;;9.80;7.50;;;4.70;99.90;;;;;;5075199;28;20201;-50
2021/04/16 07:49:55;;;;;;;9.47;7.73;;;5.00;99.90;;;;;;5075951;28;20178;-58
2021/04/16 07:52:37;;;;;;;8.63;7.73;;;5.10;99.90;;;;;;5074771;28;20190;-48
2021/04/16 07:55:11;;;;;;;9.13;7.90;;;5.30;99.90;;;;;;5074194;28;20261;-51
2021/04/16 07:57:39;;;;;;;8.37;7.57;;;5.50;99.90;;;;;;5073409;28;20170;-52
2021/04/16 08:00:24;;;;;;;7.70;6.90;;;5.80;99.90;;;;;;5072789;28;20186;-51
2021/04/16 08:03:05;;;;;;;7.33;6.53;;;6.00;99.90;;;;;;5073254;28;20205;-56
2021/04/16 08:05:41;;;;;;;7.50;6.17;;;6.10;99.90;;;;;;5073371;28;20217;-51
2021/04/16 08:08:34;;;;;;;7.60;6.80;;;6.30;99.90;;;;;;5073919;28;20178;-51
2021/04/16 08:11:05;;;;;;;7.87;6.73;;;6.60;99.90;;;;;;5072516;28;20186;-51
2021/04/16 08:13:35;;;;;;;7.33;6.63;;;6.80;99.90;;;;;;5075287;28;20177;-55
2021/04/16 08:16:20;;;;;;;7.60;6.40;;;6.90;99.90;;;;;;5075643;28;20190;-56
2021/04/16 08:19:14;;;;;;;7.07;6.37;;;6.80;99.90;;;;;;5075440;28;20171;-49
2021/04/16 08:21:44;;;;;;;8.23;6.57;;;6.70;99.90;;;;;;5070766;28;20203;-57
2021/04/16 08:24:26;;;;;;;7.10;6.40;;;6.50;99.90;;;;;;5075082;28;20630;-48
2021/04/16 08:27:10;;;;;;;7.20;6.50;;;6.50;99.90;;;;;;5075264;28;20220;-57
2021/04/16 08:29:40;;;;;;;6.10;5.50;;;6.40;99.90;;;;;;5075624;28;20166;-47
2021/04/16 08:32:30;;;;;;;6.27;5.67;;;6.40;99.90;;;;;;5075027;28;20574;-50
2021/04/16 08:35:05;;;;;;;6.00;5.40;;;6.30;99.90;;;;;;5075312;28;20181;-52
2021/04/16 08:37:41;;;;;;;6.23;5.63;;;6.10;99.90;;;;;;5075279;28;20197;-51
2021/04/16 08:40:13;;;;;;;5.73;5.20;;;6.00;99.90;;;;;;5075402;28;20189;-50
2021/04/16 08:42:39;;;;;;;5.97;5.03;;;6.10;99.90;;;;;;5074071;28;20262;-47
2021/04/16 08:45:13;;;;;;;6.13;5.53;;;6.30;99.90;;;;;;5074661;28;20525;-47
2021/04/16 08:48:14;;;;;;;6.10;5.47;;;6.40;99.90;;;;;;5075226;28;20182;-47
2021/04/16 08:50:47;;;;;;;6.30;5.70;;;6.60;99.90;;;;;;5068427;28;20629;-56
2021/04/16 08:53:13;;;;;;;5.90;5.40;;;6.90;99.90;;;;;;5061638;28;20639;-58
2021/04/16 08:55:41;;;;;;;6.07;5.47;;;7.00;99.90;;;;;;5053479;28;20626;-57
2021/04/16 08:58:18;;;;;;;6.43;5.60;;;6.90;99.90;;;;;;5054533;28;20206;-51
2021/04/16 09:00:49;;;;;;;5.57;5.07;;;7.40;99.90;;;;;;5054359;28;20637;-51
2021/04/16 09:03:39;;;;;;;5.33;4.87;;;7.40;99.90;;;;;;5068005;28;20186;-48
2021/04/16 09:06:06;;;;;;;5.63;5.13;;;7.70;99.90;;;;;;5069083;28;20673;-50
2021/04/16 09:08:40;;;;;;;5.77;4.87;;;7.60;99.90;;;;;;5079719;28;20633;-54
2021/04/16 09:11:08;;;;;;;4.97;4.50;;;7.70;99.70;;;;;;5073761;28;20184;-51
2021/04/16 09:13:40;;;;;;;4.90;4.50;;;8.00;98.80;;;;;;5075895;28;20566;-57
2021/04/16 09:16:14;;;;;;;5.23;4.73;;;8.40;97.40;;;;;;5072583;28;20210;-58
2021/04/16 09:18:45;;;;;;;4.93;4.53;;;8.80;98.30;;;;;;5082946;28;20256;-57
2021/04/16 09:21:21;;;;;;;4.63;4.23;;;9.00;96.70;;;;;;5073899;28;20202;-50
2021/04/16 09:23:47;;;;;;;4.70;4.07;;;9.00;94.90;;;;;;5074922;28;20201;-48
2021/04/16 09:26:46;;;;;;;4.03;3.73;;;8.90;95.00;;;;;;5082689;28;20225;-47
2021/04/16 09:29:39;;;;;;;4.73;4.33;;;9.10;93.60;;;;;;5074503;28;20190;-51
2021/04/16 09:32:38;;;;;;;4.77;4.33;;;9.20;95.10;;;;;;5071299;28;20194;-47
2021/04/16 09:35:18;;;;;;;4.70;4.30;;;8.90;93.90;;;;;;5073815;28;20178;-48
2021/04/16 09:37:50;;;;;;;3.20;2.90;;;8.80;95.70;;;;;;5074255;28;20185;-51
2021/04/16 09:40:27;;;;;;;3.60;3.30;;;8.70;92.50;;;;;;5074075;28;20179;-53
2021/04/16 09:43:09;;;;;;;3.40;3.10;;;8.80;93.20;;;;;;5073987;28;20202;-55
2021/04/16 09:45:35;;;;;;;4.27;3.83;;;8.60;94.50;;;;;;5069421;28;20222;-51
2021/04/16 09:48:08;;;;;;;3.70;3.40;;;8.60;95.50;;;;;;5066621;28;20201;-60
2021/04/16 09:50:48;;;;;;;3.30;3.00;;;8.80;94.50;;;;;;5067539;28;20207;-52
2021/04/16 09:53:16;;;;;;;3.70;3.30;;;8.70;93.30;;;;;;5067312;28;20177;-50
2021/04/16 09:55:41;;;;;;;3.77;3.40;;;8.50;94.10;;;;;;5079224;28;20207;-46
2021/04/16 09:58:09;;;;;;;3.17;2.97;;;8.20;92.80;;;;;;5080199;28;20171;-51
2021/04/16 10:01:02;;;;;;;3.60;3.30;;;8.30;94.60;;;;;;5070365;28;20213;-51
2021/04/16 10:03:56;;;;;;;3.80;3.50;;;8.40;94.80;;;;;;5088991;28;20270;-59
2021/04/16 10:06:37;;;;;;;4.00;3.60;;;8.70;95.30;;;;;;5088854;28;20212;-49
2021/04/16 10:09:19;;;;;;;4.60;4.20;;;8.70;93.20;;;;;;5060613;28;20546;-47
2021/04/16 10:11:47;;;;;;;4.87;4.47;;;8.80;94.10;;;;;;5057527;28;20198;-47
2021/04/16 10:14:17;;;;;;;4.03;3.70;;;8.70;92.90;;;;;;5057176;28;20182;-47
2021/04/16 10:16:44;;;;;;;4.10;3.70;;;8.60;93.00;;;;;;5057561;28;20199;-59
2021/04/16 10:19:18;;;;;;;3.67;3.37;;;8.60;93.70;;;;;;5056770;28;20174;-54
2021/04/16 10:21:44;;;;;;;3.80;3.50;;;8.50;93.30;;;;;;5056189;28;20762;-58
2021/04/16 12:40:11;;;;;;;3.37;3.07;;;11.40;90.00;;;;;;5103942;27;20573;-50
2021/04/16 12:42:37;;;;;;;3.60;3.30;;;12.00;87.70;;;;;;5093669;28;20185;-56
2021/04/16 12:45:03;;;;;;;3.27;3.07;;;12.30;87.40;;;;;;5105681;28;20190;-55
2021/04/16 12:47:31;;;;;;;3.93;3.53;;;12.60;87.40;;;;;;5098979;28;20704;-60
2021/04/16 12:49:58;;;;;;;3.83;3.53;;;12.80;87.40;;;;;;5099487;28;20174;-60
2021/04/16 12:52:24;;;;;;;3.87;3.57;;;12.80;84.40;;;;;;5104252;28;20196;-47
2021/04/16 12:54:52;;;;;;;3.80;3.50;;;12.20;84.20;;;;;;5093359;28;20532;-48
2021/04/16 12:57:26;;;;;;;3.53;3.20;;;12.00;85.30;;;;;;5090098;28;20212;-60
2021/04/16 12:59:52;;;;;;;3.50;3.20;;;12.20;85.70;;;;;;5094225;28;20678;-48
2021/04/16 13:02:28;;;;;;;4.07;3.67;;;12.20;83.90;;;;;;5093043;28;20197;-57
2021/04/16 13:04:59;;;;;;;4.07;3.67;;;11.90;85.60;;;;;;5104488;28;20181;-54
2021/04/16 13:07:25;;;;;;;3.90;3.60;;;11.90;87.00;;;;;;5083699;28;20190;-52
2021/04/16 13:09:51;;;;;;;4.13;3.80;;;11.80;85.40;;;;;;5085736;28;20218;-48
2021/04/16 13:12:18;;;;;;;4.00;3.70;;;11.80;87.20;;;;;;5081362;28;20261;-54
2021/04/16 13:14:44;;;;;;;4.50;3.70;;;11.60;85.80;;;;;;5087818;28;20669;-54
2021/04/16 13:17:23;;;;;;;4.17;3.77;;;11.50;87.60;;;;;;5086968;28;20198;-61
2021/04/16 13:19:50;;;;;;;3.93;3.60;;;11.30;86.60;;;;;;5085522;28;20210;-50
2021/04/16 13:22:18;;;;;;;4.10;3.70;;;11.30;87.50;;;;;;5091197;28;20534;-62
2021/04/16 13:24:45;;;;;;;4.37;3.97;;;11.40;88.90;;;;;;5086184;28;20249;-52
2021/04/16 13:27:14;;;;;;;3.70;3.40;;;11.60;88.40;;;;;;5090809;28;20278;-62
2021/04/16 13:29:40;;;;;;;4.30;3.90;;;11.60;89.00;;;;;;5079491;28;20178;-48
2021/04/16 13:32:09;;;;;;;4.07;3.77;;;11.40;84.90;;;;;;5082804;28;20185;-52
2021/04/16 13:34:38;;;;;;;3.90;3.50;;;11.40;87.60;;;;;;5083042;28;20260;-48
2021/04/16 13:37:05;;;;;;;3.83;3.53;;;11.50;87.10;;;;;;5080838;28;20198;-60
2021/04/16 13:39:30;;;;;;;3.80;3.50;;;11.60;88.40;;;;;;5081869;28;20212;-57
2021/04/16 13:41:56;;;;;;;4.30;3.90;;;11.70;87.50;;;;;;5080317;28;20175;-55
2021/04/16 13:44:22;;;;;;;4.30;3.90;;;;;;;;;;5077977;28;20174;-52
2021/04/16 13:46:48;;;;;;;4.30;3.90;;;11.40;83.50;;;;;;5079714;28;20667;-48
2021/04/16 13:49:20;;;;;;;4.33;3.93;;;11.20;86.40;;;;;;5080126;28;20507;-48
2021/04/16 13:51:46;;;;;;;4.00;3.63;;;11.20;87.50;;;;;;5065118;28;20277;-52
2021/04/16 13:54:12;;;;;;;4.27;3.87;;;11.00;83.70;;;;;;5059408;28;20210;-58
2021/04/16 13:56:38;;;;;;;4.20;3.80;;;10.70;87.50;;;;;;5069996;28;20211;-60
2021/04/16 13:59:04;;;;;;;4.47;4.07;;;10.70;84.90;;;;;;5064930;28;20198;-54
2021/04/16 14:01:29;;;;;;;4.63;4.07;;;10.70;86.70;;;;;;5066069;28;20511;-58
2021/04/16 14:04:00;;;;;;;4.50;3.93;;;10.80;89.40;;;;;;5064183;28;20658;-58
2021/04/16 14:06:34;;;;;;;4.00;3.70;;;10.90;88.40;;;;;;5060860;28;20198;-49
2021/04/16 14:09:04;;;;;;;3.97;3.63;;;11.00;88.90;;;;;;5076755;28;20174;-48
2021/04/16 14:11:31;;;;;;;14.47;11.50;;;11.10;87.80;;;;;;5059904;28;20210;-53
2021/04/16 14:13:58;;;;;;;4.97;4.47;;;11.10;89.00;;;;;;5054763;28;20698;-53
2021/04/16 14:16:27;;;;;;;4.03;3.63;;;11.20;88.10;;;;;;5052929;28;20195;-58
2021/04/16 14:18:54;;;;;;;4.40;4.00;;;11.00;88.30;;;;;;5053610;28;20221;-57
2021/04/16 14:21:20;;;;;;;4.77;4.27;;;10.80;88.70;;;;;;5053609;28;20214;-58
2021/04/16 14:23:46;;;;;;;4.40;4.00;;;10.60;88.30;;;;;;5053784;28;20229;-61
2021/04/16 14:26:13;;;;;;;4.60;4.20;;;10.60;89.30;;;;;;5053176;28;20187;-48
2021/04/16 14:28:39;;;;;;;4.13;3.83;;;10.60;89.70;;;;;;5054746;28;20206;-61
2021/04/16 14:31:06;;;;;;;5.63;4.87;;;10.70;89.40;;;;;;5055557;28;20527;-56
2021/04/16 14:33:35;;;;;;;5.70;4.50;;;10.70;90.00;;;;;;5055707;28;20171;-61
2021/04/16 14:36:02;;;;;;;4.93;4.43;;;10.70;90.30;;;;;;5055255;28;20222;-48
2021/04/16 14:38:29;;;;;;;4.77;4.37;;;10.60;90.30;;;;;;5055813;28;20249;-54
2021/04/16 14:40:55;;;;;;;5.23;4.73;;;10.60;90.50;;;;;;5055348;28;20206;-50
2021/04/16 14:43:23;;;;;;;5.50;5.00;;;10.40;89.30;;;;;;5055409;28;20167;-54
2021/04/16 14:45:50;;;;;;;5.73;5.13;;;10.20;90.00;;;;;;5054873;28;20193;-61
2021/04/16 14:48:16;;;;;;;4.67;4.27;;;10.10;90.30;;;;;;5055828;28;20167;-48
2021/04/16 14:50:42;;;;;;;5.33;4.83;;;10.10;91.00;;;;;;5056016;28;20210;-54
2021/04/16 14:53:28;;;;;;;5.17;4.67;;;10.10;91.10;;;;;;5037377;28;20206;-56
2021/04/16 14:55:54;;;;;;;5.83;5.10;;;10.20;91.50;;;;;;5055299;28;20202;-48
2021/04/16 14:58:45;;;;;;;5.10;4.60;;;10.30;91.60;;;;;;5055044;28;20203;-51
2021/04/16 15:01:15;;;;;;;5.40;4.90;;;10.50;90.80;;;;;;5090995;28;20181;-53
2021/04/16 15:03:41;;;;;;;5.53;5.03;;;10.70;91.10;;;;;;5095539;28;20170;-48
2021/04/16 15:06:10;;;;;;;6.57;5.00;;;10.70;91.30;;;;;;5095329;28;20650;-57
2021/04/16 15:08:42;;;;;;;5.60;5.10;;;10.70;91.90;;;;;;5094966;28;20170;-55
2021/04/16 15:11:11;;;;;;;6.07;4.80;;;10.80;91.50;;;;;;5095245;28;20525;-61
2021/04/16 15:13:37;;;;;;;5.83;5.23;;;10.70;90.90;;;;;;5095518;28;20571;-48
2021/04/16 15:16:06;;;;;;;5.43;4.93;;;10.50;91.60;;;;;;5095120;28;20197;-58
2021/04/16 15:18:33;;;;;;;6.40;5.37;;;10.30;91.60;;;;;;5094442;28;20317;-51
2021/04/16 15:21:02;;;;;;;5.43;4.93;;;10.20;90.60;;;;;;5094821;28;20169;-56
2021/04/16 15:23:28;;;;;;;9.87;8.97;;;10.10;91.20;;;;;;5095181;28;20170;-61